Time;durP1;ratioP1;P1;durP2;ratioP2;P2;SDS_P1;SDS_P2;PMS_P1;PMS_P2;Temp;Humidity;BMP_temperature;BMP_pressure;BME280_temperature;BME280_humidity;BME280_pressure;Samples;Min_cycle;Max_cycle;Signal;HPM_P1;HPM_P2
2022/06/16 00:00:01;;;;;;;;;;;;;;;24.97;68.36;99127.56;5038955;28;20419;-39
2022/06/16 00:02:27;;;;;;;;;;;;;;;25.19;66.21;99136.22;5041593;28;19932;-39
2022/06/16 00:04:52;;;;;;;;;;;;;;;24.71;67.60;99142.25;5044941;28;19940;-39
2022/06/16 00:07:17;;;;;;;;;;;;;;;25.44;66.25;99134.81;5042829;28;20424;-39
2022/06/16 00:09:42;;;;;;;;;;;;;;;25.32;66.59;99131.50;5040171;28;19920;-39
2022/06/16 00:12:08;;;;;;;;;;;;;;;25.53;65.46;99125.22;5040491;28;20023;-39
2022/06/16 00:14:33;;;;;;;;;;;;;;;24.52;68.85;99143.03;5025965;28;20011;-39
2022/06/16 00:16:58;;;;;;;;;;;;;;;24.71;68.15;99147.53;5047379;28;19925;-39
2022/06/16 00:19:24;;;;;;;;;;;;;;;24.60;68.75;99149.28;5044021;28;19921;-39
2022/06/16 00:21:49;;;;;;;;;;;;;;;24.72;67.34;99146.53;5026599;28;20552;-39
2022/06/16 00:24:14;;;;;;;;;;;;;;;25.39;65.12;99137.88;5047605;28;20586;-39
2022/06/16 00:26:40;;;;;;;;;;;;;;;24.98;66.76;99139.78;5047568;28;19952;-39
2022/06/16 00:29:05;;;;;;;;;;;;;;;24.97;69.13;99135.47;5044464;28;19920;-39
2022/06/16 00:31:30;;;;;;;;;;;;;;;24.83;68.20;99128.81;5044833;28;19920;-39
2022/06/16 00:33:55;;;;;;;;;;;;;;;24.24;71.19;99137.50;5046676;28;19927;-39
2022/06/16 00:36:21;;;;;;;;;;;;;;;25.12;67.59;99117.47;5028990;28;19928;-39
2022/06/16 00:38:46;;;;;;;;;;;;;;;24.99;67.33;99109.81;5047796;28;19920;-39
2022/06/16 00:41:12;;;;;;;;;;;;;;;25.05;65.95;99092.66;5045140;28;20827;-39
2022/06/16 00:43:38;;;;;;;;;;;;;;;24.27;70.11;99097.78;5047559;28;19917;-39
2022/06/16 00:46:05;;;;;;;;;;;;;;;25.07;66.97;99084.59;5027110;28;19956;-39
2022/06/16 00:48:31;;;;;;;;;;;;;;;25.01;67.05;99096.50;5030181;28;20007;-39
2022/06/16 00:51:03;;;;;;;;;;;;;;;25.19;67.13;99104.59;5027399;28;19920;-39
2022/06/16 00:53:28;;;;;;;;;;;;;;;24.66;66.06;99120.75;5029583;28;20397;-39
2022/06/16 00:55:53;;;;;;;;;;;;;;;24.36;68.32;99127.72;5045807;28;19974;-39
2022/06/16 00:58:19;;;;;;;;;;;;;;;24.52;69.95;99127.22;5043969;28;19967;-39
2022/06/16 01:00:47;;;;;;;;;;;;;;;24.01;72.35;99126.34;5011113;28;20201;-39
2022/06/16 01:03:14;;;;;;;;;;;;;;;24.15;72.32;99131.25;5042008;28;19940;-39
2022/06/16 01:05:39;;;;;;;;;;;;;;;23.89;70.36;99130.84;5025363;28;19920;-39
2022/06/16 01:08:05;;;;;;;;;;;;;;;23.08;75.98;99135.81;5045339;28;19959;-39
2022/06/16 01:10:37;;;;;;;;;;;;;;;23.14;75.10;99131.84;5025434;28;19927;-39
2022/06/16 01:16:05;;;;;;;;;;;;;;;24.35;67.21;99152.38;5044611;28;21345;-39
2022/06/16 01:18:40;;;;;;;;;;;;;;;23.01;73.73;99174.03;5045065;28;19920;-38
2022/06/16 01:21:22;;;;;;;;;;;;;;;22.49;83.54;99162.44;5028115;28;20104;-39
2022/06/16 01:24:06;;;;;;;;;;;;;;;23.51;79.34;99137.50;5025047;28;19990;-39
2022/06/16 01:26:37;;;;;;;;;;;;;;;23.05;79.15;99164.13;5043145;28;19920;-39
2022/06/16 01:29:18;;;;;;;;;;;;;;;22.35;84.88;99168.72;5046207;28;19924;-39
2022/06/16 01:31:44;;;;;;;;;;;;;;;22.07;86.15;99173.47;5043354;28;19936;-39
2022/06/16 01:34:17;;;;;;;;;;;;;;;21.70;90.50;99184.13;5010495;28;19924;-39
2022/06/16 01:36:52;;;;;;;;;;;;;;;22.16;90.19;99168.47;5027239;28;19920;-39
2022/06/16 01:39:41;;;;;;;;;;;;;;;22.87;86.26;99164.59;5022764;28;19933;-39
2022/06/16 01:42:10;;;;;;;;;;;;;;;23.11;82.53;99150.50;5031890;28;20381;-39
2022/06/16 01:44:37;;;;;;;;;;;;;;;23.50;79.55;99135.03;5043657;28;19920;-39
2022/06/16 01:47:06;;;;;;;;;;;;;;;23.80;77.41;99142.97;5027150;28;19921;-39
2022/06/16 01:49:32;;;;;;;;;;;;;;;24.12;75.61;99141.19;5026122;28;19924;-39
2022/06/16 01:51:59;;;;;;;;;;;;;;;24.16;73.81;99153.13;5026250;28;19960;-39
2022/06/16 01:54:28;;;;;;;;;;;;;;;24.02;74.29;99146.44;5028131;28;20747;-39
2022/06/16 01:56:58;;;;;;;;;;;;;;;24.11;74.34;99152.72;5025917;28;20366;-39
2022/06/16 01:59:24;;;;;;;;;;;;;;;23.87;73.19;99143.28;5026001;28;20542;-39
2022/06/16 02:01:50;;;;;;;;;;;;;;;23.82;72.73;99134.16;5025202;28;19928;-39
2022/06/16 02:04:20;;;;;;;;;;;;;;;23.71;72.79;99121.88;5026038;28;19920;-39
2022/06/16 02:06:46;;;;;;;;;;;;;;;23.96;72.97;99120.63;5026316;28;19921;-39
2022/06/16 02:09:14;;;;;;;;;;;;;;;23.87;74.82;99127.50;5027941;28;19924;-39
2022/06/16 02:11:42;;;;;;;;;;;;;;;23.82;71.66;99126.25;5025545;28;19975;-39
2022/06/16 02:14:27;;;;;;;;;;;;;;;23.19;73.48;99142.81;5029029;28;20489;-39
2022/06/16 02:16:52;;;;;;;;;;;;;;;23.24;75.27;99151.16;5044033;28;19921;-39
2022/06/16 02:19:18;;;;;;;;;;;;;;;23.39;71.34;99147.25;5045035;28;19917;-39
2022/06/16 02:21:47;;;;;;;;;;;;;;;23.07;72.72;99149.91;5024738;28;20015;-39
2022/06/16 02:24:13;;;;;;;;;;;;;;;23.68;72.11;99141.38;5026378;28;19920;-39
2022/06/16 02:26:38;;;;;;;;;;;;;;;24.01;69.99;99139.47;5041583;28;20448;-39
2022/06/16 02:29:19;;;;;;;;;;;;;;;23.97;70.74;99151.22;5024758;28;20002;-39
2022/06/16 02:32:03;;;;;;;;;;;;;;;23.51;71.71;99153.28;5043511;28;20324;-39
2022/06/16 02:34:44;;;;;;;;;;;;;;;23.36;73.84;99150.13;5043897;28;19921;-39
2022/06/16 02:37:17;;;;;;;;;;;;;;;23.10;72.39;99159.31;5044409;28;19967;-39
2022/06/16 02:39:42;;;;;;;;;;;;;;;22.91;75.36;99171.28;5029307;28;20344;-39
2022/06/16 02:42:07;;;;;;;;;;;;;;;22.86;76.16;99164.75;5042443;28;19974;-39
2022/06/16 02:44:56;;;;;;;;;;;;;;;22.81;76.15;99165.13;5044306;28;20356;-39
2022/06/16 02:47:54;;;;;;;;;;;;;;;22.85;75.01;99166.50;5034965;28;19921;-39
2022/06/16 02:50:43;;;;;;;;;;;;;;;23.26;71.56;99170.25;5010579;28;19929;-39
2022/06/16 02:53:18;;;;;;;;;;;;;;;23.45;69.78;99169.56;5033423;28;20860;-39
2022/06/16 02:55:47;;;;;;;;;;;;;;;23.37;72.86;99172.81;5028658;28;19920;-39
2022/06/16 02:58:14;;;;;;;;;;;;;;;23.10;70.31;99165.41;5043022;28;19927;-39
2022/06/16 03:00:41;;;;;;;;;;;;;;;23.01;72.51;99170.56;5022252;28;19924;-38
2022/06/16 03:03:21;;;;;;;;;;;;;;;23.54;72.55;99170.63;5027064;28;21143;-39
2022/06/16 03:05:49;;;;;;;;;;;;;;;23.11;72.92;99168.88;5041954;28;20019;-39
2022/06/16 03:08:14;;;;;;;;;;;;;;;23.30;71.84;99166.41;5026322;28;19924;-39
2022/06/16 03:10:51;;;;;;;;;;;;;;;23.48;70.78;99165.84;5042481;28;19921;-39
2022/06/16 03:13:25;;;;;;;;;;;;;;;23.54;70.17;99163.56;5043490;28;19951;-39
2022/06/16 03:15:51;;;;;;;;;;;;;;;23.47;72.85;99161.53;5040964;28;20558;-39
2022/06/16 03:18:17;;;;;;;;;;;;;;;23.41;73.15;99170.78;5045966;28;20366;-39
2022/06/16 03:20:42;;;;;;;;;;;;;;;23.30;74.94;99170.84;5041351;28;19963;-38
2022/06/16 03:23:08;;;;;;;;;;;;;;;23.57;74.32;99178.25;5040016;28;19924;-39
2022/06/16 03:25:33;;;;;;;;;;;;;;;23.33;74.97;99181.09;5043796;28;19920;-39
2022/06/16 03:27:58;;;;;;;;;;;;;;;23.19;74.99;99179.59;5043012;28;19916;-39
2022/06/16 03:30:24;;;;;;;;;;;;;;;23.11;74.21;99179.41;5045096;28;19931;-39
2022/06/16 03:32:49;;;;;;;;;;;;;;;23.18;75.53;99183.19;5041666;28;20039;-39
2022/06/16 03:35:14;;;;;;;;;;;;;;;23.24;75.19;99166.94;5044003;28;19916;-39
2022/06/16 03:37:41;;;;;;;;;;;;;;;23.31;75.31;99168.09;5041267;28;19920;-39
2022/06/16 03:40:07;;;;;;;;;;;;;;;23.37;75.41;99167.56;5040379;28;19921;-39
2022/06/16 03:42:32;;;;;;;;;;;;;;;23.18;75.79;99180.56;5042823;28;19928;-39
2022/06/16 03:44:58;;;;;;;;;;;;;;;23.46;75.96;99179.13;5043519;28;19920;-39
2022/06/16 03:47:23;;;;;;;;;;;;;;;23.32;76.99;99177.63;5040784;28;19966;-39
2022/06/16 03:49:48;;;;;;;;;;;;;;;22.88;78.42;99192.56;5043025;28;20316;-39
2022/06/16 03:52:13;;;;;;;;;;;;;;;23.03;78.37;99194.94;5048489;28;19920;-39
2022/06/16 03:54:38;;;;;;;;;;;;;;;23.03;78.19;99197.56;5047294;28;19924;-39
2022/06/16 03:57:04;;;;;;;;;;;;;;;23.05;75.57;99203.53;5044355;28;19925;-39
2022/06/16 03:59:29;;;;;;;;;;;;;;;22.55;77.52;99212.63;5047262;28;19931;-39
2022/06/16 04:01:55;;;;;;;;;;;;;;;22.76;79.16;99218.00;5044952;28;19921;-39
2022/06/16 04:04:20;;;;;;;;;;;;;;;23.07;78.76;99201.59;5048097;28;20568;-38
2022/06/16 04:06:45;;;;;;;;;;;;;;;23.29;78.11;99212.06;5044404;28;20408;-39
2022/06/16 04:09:10;;;;;;;;;;;;;;;23.35;77.29;99211.53;5044791;28;20102;-39
2022/06/16 04:11:35;;;;;;;;;;;;;;;23.36;77.41;99207.13;5043170;28;20006;-39
2022/06/16 04:14:07;;;;;;;;;;;;;;;23.35;77.88;99203.66;5046766;28;19920;-39
2022/06/16 04:16:34;;;;;;;;;;;;;;;23.48;75.95;99211.38;5043661;28;20765;-39
2022/06/16 04:18:59;;;;;;;;;;;;;;;23.35;74.69;99211.53;5046413;28;19927;-39
2022/06/16 04:21:24;;;;;;;;;;;;;;;23.05;76.72;99221.91;5044586;28;19924;-39
2022/06/16 04:23:50;;;;;;;;;;;;;;;22.57;78.62;99230.06;5043343;28;20341;-39
2022/06/16 04:26:15;;;;;;;;;;;;;;;21.74;84.19;99242.44;5045160;28;20424;-39
2022/06/16 04:28:40;;;;;;;;;;;;;;;21.89;85.14;99241.25;5047430;28;19951;-38
2022/06/16 04:31:05;;;;;;;;;;;;;;;21.56;87.68;99249.84;5044461;28;20463;-39
2022/06/16 04:33:31;;;;;;;;;;;;;;;20.68;90.87;99248.22;5047630;28;21772;-39
2022/06/16 04:35:56;;;;;;;;;;;;;;;20.97;91.36;99255.81;5046708;28;20261;-39
2022/06/16 04:38:21;;;;;;;;;;;;;;;21.62;91.28;99238.94;5049178;28;19921;-39
2022/06/16 04:40:46;;;;;;;;;;;;;;;22.33;86.29;99239.72;5047615;28;20007;-39
2022/06/16 04:43:14;;;;;;;;;;;;;;;22.45;83.52;99237.09;5047882;28;19927;-38
2022/06/16 04:45:40;;;;;;;;;;;;;;;22.56;84.51;99239.72;5047090;28;20397;-39
2022/06/16 04:48:06;;;;;;;;;;;;;;;22.48;85.50;99237.69;5044769;28;20050;-38
2022/06/16 04:50:31;;;;;;;;;;;;;;;22.59;82.30;99238.66;5044455;28;19929;-38
2022/06/16 04:52:56;;;;;;;;;;;;;;;21.37;90.17;99260.81;5042190;28;19956;-38
2022/06/16 04:55:21;;;;;;;;;;;;;;;20.99;92.87;99260.94;5045869;28;20803;-39
2022/06/16 04:57:46;;;;;;;;;;;;;;;20.55;97.05;99268.31;5044955;28;19920;-39
2022/06/16 05:00:13;;;;;;;;;;;;;;;20.62;98.02;99271.38;5046537;28;19967;-38
2022/06/16 05:02:39;;;;;;;;;;;;;;;21.10;96.43;99263.66;5045091;28;19944;-38
2022/06/16 05:05:04;;;;;;;;;;;;;;;21.22;96.14;99268.00;5044351;28;20052;-39
2022/06/16 05:07:29;;;;;;;;;;;;;;;21.92;90.99;99256.78;5048962;28;20675;-39
2022/06/16 05:09:55;;;;;;;;;;;;;;;22.04;86.90;99259.44;5044619;28;20298;-39
2022/06/16 05:12:20;;;;;;;;;;;;;;;22.18;87.25;99256.59;5046735;28;19939;-39
2022/06/16 05:14:45;;;;;;;;;;;;;;;22.52;86.28;99254.88;5046826;28;20346;-39
2022/06/16 05:17:10;;;;;;;;;;;;;;;22.65;84.84;99257.38;5044772;28;20023;-39
2022/06/16 05:19:36;;;;;;;;;;;;;;;21.68;88.57;99266.47;5045529;28;19966;-39
2022/06/16 05:22:03;;;;;;;;;;;;;;;21.59;86.22;99267.13;5027386;28;19921;-39
2022/06/16 05:24:29;;;;;;;;;;;;;;;21.98;87.70;99265.97;5046737;28;19936;-38
2022/06/16 05:26:54;;;;;;;;;;;;;;;22.83;80.80;99270.88;5046916;28;20278;-38
2022/06/16 05:29:19;;;;;;;;;;;;;;;22.10;80.77;99280.78;5045889;28;19929;-39
2022/06/16 05:31:45;;;;;;;;;;;;;;;22.67;82.37;99283.50;5048237;28;20573;-39
2022/06/16 05:34:11;;;;;;;;;;;;;;;23.00;79.52;99273.97;5048701;28;19920;-39
2022/06/16 05:36:36;;;;;;;;;;;;;;;22.17;81.38;99286.41;5046802;28;19964;-39
2022/06/16 05:39:02;;;;;;;;;;;;;;;22.09;83.00;99289.59;5026176;28;19920;-39
2022/06/16 05:41:27;;;;;;;;;;;;;;;22.39;80.82;99297.91;5043864;28;19928;-39
2022/06/16 05:43:52;;;;;;;;;;;;;;;22.31;80.70;99304.59;5028013;28;19925;-39
2022/06/16 05:46:18;;;;;;;;;;;;;;;21.94;83.95;99314.38;5048412;28;19936;-39
2022/06/16 05:48:44;;;;;;;;;;;;;;;21.97;84.13;99311.50;5046591;28;20462;-39
2022/06/16 05:51:10;;;;;;;;;;;;;;;22.14;82.20;99303.19;5042720;28;19921;-39
2022/06/16 05:53:36;;;;;;;;;;;;;;;22.08;84.38;99308.09;5027499;28;19908;-39
2022/06/16 05:56:01;;;;;;;;;;;;;;;22.45;81.08;99300.91;5046944;28;19987;-39
2022/06/16 05:58:26;;;;;;;;;;;;;;;23.29;78.05;99301.41;5026390;28;19951;-39
2022/06/16 06:00:52;;;;;;;;;;;;;;;22.94;80.15;99312.88;5045976;28;19921;-39
2022/06/16 06:03:17;;;;;;;;;;;;;;;22.24;81.04;99321.75;5048117;28;19991;-39
2022/06/16 06:05:42;;;;;;;;;;;;;;;22.23;84.75;99319.25;5046526;28;20008;-39
2022/06/16 06:16:25;;;;;;;;;;;;;;;21.95;87.50;99333.56;5046966;28;19928;-39
2022/06/16 06:18:54;;;;;;;;;;;;;;;21.98;83.79;99333.31;5026528;28;20507;-39
2022/06/16 06:21:57;;;;;;;;;;;;;;;22.57;80.77;99330.63;5042446;28;19925;-39
2022/06/16 06:24:05;;;;;;;;;;;;;;;22.41;83.60;99332.75;5044112;28;19932;-39
2022/06/16 06:26:30;;;;;;;;;;;;;;;23.44;75.94;99330.84;5044554;28;19931;-39
2022/06/16 06:28:55;;;;;;;;;;;;;;;22.91;80.71;99335.91;5044540;28;19928;-39
2022/06/16 06:31:21;;;;;;;;;;;;;;;23.29;82.61;99332.94;5046217;28;20443;-39
2022/06/16 06:33:46;;;;;;;;;;;;;;;24.11;76.56;99329.81;5046597;28;20021;-39
2022/06/16 06:36:11;;;;;;;;;;;;;;;24.30;72.63;99329.13;5041697;28;19959;-39
2022/06/16 06:38:36;;;;;;;;;;;;;;;23.90;70.83;99336.84;5044847;28;19966;-39
2022/06/16 06:41:02;;;;;;;;;;;;;;;22.64;84.07;99352.00;5042106;28;19936;-39
2022/06/16 06:43:27;;;;;;;;;;;;;;;23.10;82.13;99340.59;5023522;28;19920;-39
2022/06/16 06:45:52;;;;;;;;;;;;;;;24.00;78.55;99345.66;5041350;28;19974;-39
2022/06/16 06:48:17;;;;;;;;;;;;;;;23.43;74.50;99346.78;5045981;28;19920;-39
2022/06/16 06:50:43;;;;;;;;;;;;;;;24.88;70.75;99344.41;5044108;28;19948;-39
2022/06/16 06:53:09;;;;;;;;;;;;;;;24.84;67.89;99348.31;5045950;28;19920;-39
2022/06/16 06:55:35;;;;;;;;;;;;;;;23.62;76.11;99362.72;5045631;28;19972;-39
2022/06/16 06:58:01;;;;;;;;;;;;;;;23.46;80.35;99373.63;5024064;28;19975;-39
2022/06/16 07:00:27;;;;;;;;;;;;;;;23.18;81.64;99369.72;5043746;28;20929;-39
2022/06/16 07:02:52;;;;;;;;;;;;;;;23.31;80.83;99370.44;5037829;28;19928;-39
2022/06/16 07:05:17;;;;;;;;;;;;;;;24.06;76.78;99368.81;5043516;28;20874;-39
2022/06/16 07:07:43;;;;;;;;;;;;;;;24.62;71.73;99365.91;5022868;28;19947;-39
2022/06/16 07:10:08;;;;;;;;;;;;;;;25.20;70.19;99375.09;5023827;28;19924;-39
2022/06/16 07:12:34;;;;;;;;;;;;;;;23.25;78.48;99399.81;5042089;28;19928;-39
2022/06/16 07:14:59;;;;;;;;;;;;;;;24.91;77.84;99386.34;5038898;28;19925;-39
2022/06/16 07:17:25;;;;;;;;;;;;;;;23.96;78.79;99388.97;5041271;28;19921;-39
2022/06/16 07:19:50;;;;;;;;;;;;;;;23.61;78.22;99390.00;5041627;28;19916;-39
2022/06/16 07:22:15;;;;;;;;;;;;;;;24.55;69.58;99385.84;5023168;28;19921;-39
2022/06/16 07:24:41;;;;;;;;;;;;;;;24.68;69.02;99388.28;5041955;28;20374;-39
2022/06/16 07:27:06;;;;;;;;;;;;;;;24.51;65.93;99391.50;5041958;28;19927;-38
2022/06/16 07:29:31;;;;;;;;;;;;;;;25.23;64.44;99388.03;5037200;28;19970;-39
2022/06/16 07:31:58;;;;;;;;;;;;;;;24.47;67.27;99396.16;5042127;28;19928;-39
2022/06/16 07:34:23;;;;;;;;;;;;;;;24.78;68.94;99391.78;5042084;28;20718;-38
2022/06/16 07:36:48;;;;;;;;;;;;;;;26.20;61.32;99380.28;5040808;28;19920;-39
2022/06/16 07:39:14;;;;;;;;;;;;;;;26.30;63.21;99390.84;5041326;28;20504;-39
2022/06/16 07:41:39;;;;;;;;;;;;;;;25.58;62.84;99389.38;5040796;28;20291;-39
2022/06/16 07:44:07;;;;;;;;;;;;;;;26.06;60.59;99388.63;5042210;28;19936;-39
2022/06/16 07:46:33;;;;;;;;;;;;;;;26.94;59.39;99384.06;5041236;28;20642;-39
2022/06/16 07:48:58;;;;;;;;;;;;;;;26.65;63.58;99392.06;5042260;28;19947;-39
2022/06/16 07:51:23;;;;;;;;;;;;;;;26.98;61.00;99396.03;5041513;28;19916;-39
2022/06/16 07:53:48;;;;;;;;;;;;;;;26.60;60.95;99395.13;5042501;28;19955;-39
2022/06/16 07:56:14;;;;;;;;;;;;;;;25.39;63.74;99391.00;5045679;28;20024;-39
2022/06/16 07:58:39;;;;;;;;;;;;;;;26.23;66.47;99401.13;5041542;28;19924;-39
2022/06/16 08:01:07;;;;;;;;;;;;;;;26.28;64.08;99404.19;5042220;28;20039;-39
2022/06/16 08:03:32;;;;;;;;;;;;;;;25.23;66.49;99407.31;5024052;28;19994;-39
2022/06/16 08:05:58;;;;;;;;;;;;;;;26.80;60.42;99400.38;5042006;28;19912;-39
2022/06/16 08:08:23;;;;;;;;;;;;;;;27.54;57.91;99403.00;5024501;28;19927;-39
2022/06/16 08:10:49;;;;;;;;;;;;;;;27.21;56.56;99404.44;5043229;28;19917;-39
2022/06/16 08:13:15;;;;;;;;;;;;;;;27.29;56.81;99398.41;5024308;28;19954;-39
2022/06/16 08:15:45;;;;;;;;;;;;;;;26.10;57.88;99410.31;5041095;28;20015;-39
2022/06/16 08:18:10;;;;;;;;;;;;;;;27.33;57.69;99410.38;5041905;28;19917;-39
2022/06/16 08:20:36;;;;;;;;;;;;;;;27.48;55.17;99413.34;5022931;28;19923;-39
2022/06/16 08:23:01;;;;;;;;;;;;;;;25.38;61.35;99415.66;5042896;28;20580;-39
2022/06/16 08:25:26;;;;;;;;;;;;;;;27.23;54.16;99410.44;5044348;28;20269;-39
2022/06/16 08:27:52;;;;;;;;;;;;;;;26.97;57.30;99415.47;5044220;28;20007;-39
2022/06/16 08:30:17;;;;;;;;;;;;;;;26.69;57.68;99411.94;5043670;28;19925;-39
2022/06/16 08:32:43;;;;;;;;;;;;;;;26.12;63.10;99429.47;5023110;28;20465;-39
2022/06/16 08:35:08;;;;;;;;;;;;;;;27.44;53.42;99407.53;5043074;28;20788;-39
2022/06/16 08:37:34;;;;;;;;;;;;;;;28.79;53.10;99411.97;5047562;28;19916;-39
2022/06/16 08:39:59;;;;;;;;;;;;;;;27.41;53.35;99417.56;5041980;28;19920;-39
2022/06/16 08:42:27;;;;;;;;;;;;;;;27.46;49.26;99416.16;5026340;28;20528;-39
2022/06/16 08:45:03;;;;;;;;;;;;;;;26.92;52.65;99423.03;5024291;28;20047;-39
2022/06/16 08:47:37;;;;;;;;;;;;;;;27.83;53.00;99412.59;5042310;28;19920;-39
2022/06/16 08:50:23;;;;;;;;;;;;;;;28.17;50.85;99419.91;5044050;28;19928;-39
2022/06/16 08:52:51;;;;;;;;;;;;;;;27.17;59.22;99433.94;5027998;28;19943;-39
2022/06/16 08:55:16;;;;;;;;;;;;;;;27.17;52.48;99426.84;5046016;28;20290;-39
2022/06/16 08:58:00;;;;;;;;;;;;;;;26.70;60.09;99438.22;5047494;28;19959;-39
2022/06/16 09:00:46;;;;;;;;;;;;;;;26.88;57.58;99434.84;5044877;28;19920;-39
2022/06/16 09:03:14;;;;;;;;;;;;;;;26.16;65.05;99439.63;5046192;28;19917;-39
2022/06/16 09:05:42;;;;;;;;;;;;;;;27.06;61.52;99432.31;5045670;28;19916;-39
2022/06/16 09:08:26;;;;;;;;;;;;;;;28.72;52.46;99429.47;5027594;28;19927;-39
2022/06/16 09:10:55;;;;;;;;;;;;;;;27.07;57.17;99442.75;5046831;28;20008;-39
2022/06/16 09:13:33;;;;;;;;;;;;;;;27.79;56.10;99431.56;5025728;28;20018;-40
2022/06/16 09:16:01;;;;;;;;;;;;;;;28.09;53.05;99435.69;5041834;28;19917;-40
2022/06/16 09:18:45;;;;;;;;;;;;;;;26.76;55.06;99444.75;5042225;28;19964;-39
2022/06/16 09:21:12;;;;;;;;;;;;;;;27.62;50.67;99438.47;5042590;28;19921;-39
2022/06/16 09:23:42;;;;;;;;;;;;;;;27.08;50.06;99439.09;5045619;28;20019;-39
2022/06/16 09:26:07;;;;;;;;;;;;;;;28.44;44.81;99436.66;5023809;28;20003;-39
2022/06/16 09:28:37;;;;;;;;;;;;;;;27.02;51.84;99444.13;5042443;28;20098;-39
2022/06/16 09:31:04;;;;;;;;;;;;;;;28.42;47.14;99438.63;5009840;28;20690;-39
2022/06/16 09:33:39;;;;;;;;;;;;;;;27.52;48.19;99447.28;5039754;28;20047;-39
2022/06/16 09:36:12;;;;;;;;;;;;;;;27.77;47.53;99439.66;5023567;28;19920;-39
2022/06/16 09:38:48;;;;;;;;;;;;;;;27.50;49.50;99443.97;5045014;28;20050;-39
2022/06/16 09:44:11;;;;;;;;;;;;;;;29.33;42.70;99448.88;5028218;28;19920;-39
2022/06/16 09:46:37;;;;;;;;;;;;;;;27.89;45.37;99446.41;5024941;28;20079;-39
2022/06/16 09:49:03;;;;;;;;;;;;;;;27.91;45.38;99456.88;5025233;28;20381;-39
2022/06/16 09:51:28;;;;;;;;;;;;;;;26.46;48.21;99472.16;5043521;28;19913;-39
2022/06/16 09:53:53;;;;;;;;;;;;;;;26.32;51.33;99472.53;5041207;28;19916;-39
2022/06/16 09:56:20;;;;;;;;;;;;;;;27.72;45.45;99463.09;5043419;28;19916;-39
2022/06/16 09:58:50;;;;;;;;;;;;;;;29.18;43.32;99460.09;5041396;28;19982;-40
2022/06/16 10:01:18;;;;;;;;;;;;;;;29.17;39.40;99455.81;5026426;28;19948;-39
2022/06/16 10:03:49;;;;;;;;;;;;;;;29.63;39.49;99462.63;5021339;28;20011;-39
2022/06/16 10:06:19;;;;;;;;;;;;;;;30.41;38.63;99465.84;5044283;28;19927;-39
2022/06/16 10:08:55;;;;;;;;;;;;;;;30.27;39.80;99470.94;5025166;28;20316;-39
2022/06/16 10:11:39;;;;;;;;;;;;;;;29.31;40.89;99466.78;5043726;28;19920;-40
2022/06/16 10:14:21;;;;;;;;;;;;;;;28.78;40.21;99477.41;5041699;28;19927;-40
2022/06/16 10:16:53;;;;;;;;;;;;;;;29.92;39.40;99476.34;5025116;28;20634;-39
2022/06/16 10:19:19;;;;;;;;;;;;;;;29.19;39.15;99482.16;5044617;28;20018;-39
2022/06/16 10:21:44;;;;;;;;;;;;;;;28.99;39.83;99479.69;5043207;28;19916;-39
2022/06/16 10:24:09;;;;;;;;;;;;;;;29.54;40.38;99486.50;5026913;28;20616;-40
2022/06/16 10:26:35;;;;;;;;;;;;;;;30.01;38.76;99486.00;5042050;28;20366;-40
2022/06/16 10:29:00;;;;;;;;;;;;;;;26.83;41.96;99498.69;5040962;28;20892;-39
2022/06/16 10:31:39;;;;;;;;;;;;;;;27.48;43.52;99498.84;5044224;28;19913;-39
2022/06/16 10:34:05;;;;;;;;;;;;;;;27.81;44.39;99496.59;5042954;28;19921;-40
2022/06/16 10:36:30;;;;;;;;;;;;;;;27.19;42.76;99498.91;5025098;28;19921;-39
2022/06/16 10:39:04;;;;;;;;;;;;;;;28.61;45.83;99501.28;5038698;28;19916;-40
2022/06/16 10:41:34;;;;;;;;;;;;;;;29.52;39.37;99501.72;5045562;28;19924;-39
2022/06/16 10:44:00;;;;;;;;;;;;;;;28.69;40.71;99506.63;5022064;28;19920;-39
2022/06/16 10:46:33;;;;;;;;;;;;;;;28.23;44.26;99511.97;5045344;28;19952;-39
2022/06/16 10:49:00;;;;;;;;;;;;;;;28.91;42.02;99510.63;5043213;28;19920;-40
2022/06/16 10:51:25;;;;;;;;;;;;;;;30.66;39.61;99512.88;5044368;28;19924;-40
2022/06/16 10:54:09;;;;;;;;;;;;;;;30.47;37.06;99512.16;5021729;28;20290;-40
2022/06/16 10:56:34;;;;;;;;;;;;;;;28.94;38.77;99526.22;5042499;28;20465;-39
2022/06/16 10:59:01;;;;;;;;;;;;;;;30.01;36.15;99520.53;5045144;28;19925;-40
2022/06/16 11:01:41;;;;;;;;;;;;;;;28.98;37.19;99527.56;5043476;28;19917;-39
2022/06/16 11:04:11;;;;;;;;;;;;;;;29.42;40.25;99537.31;5026891;28;19924;-40
2022/06/16 11:06:40;;;;;;;;;;;;;;;30.18;38.08;99528.56;5043495;28;19927;-39
2022/06/16 11:09:06;;;;;;;;;;;;;;;30.30;36.53;99526.44;5027480;28;19971;-40
2022/06/16 11:11:45;;;;;;;;;;;;;;;30.83;36.25;99527.81;5025536;28;19926;-40
2022/06/16 11:14:16;;;;;;;;;;;;;;;31.47;34.93;99525.25;5009166;28;20568;-40
2022/06/16 11:16:48;;;;;;;;;;;;;;;31.10;33.70;99523.97;5025030;28;19960;-40
2022/06/16 11:19:17;;;;;;;;;;;;;;;32.26;34.58;99525.25;5025343;28;20831;-40
2022/06/16 11:21:44;;;;;;;;;;;;;;;30.87;35.64;99528.34;5023973;28;19917;-40
2022/06/16 11:24:20;;;;;;;;;;;;;;;30.34;35.48;99522.47;5021564;28;19928;-39
2022/06/16 11:26:45;;;;;;;;;;;;;;;30.15;37.67;99531.50;5023247;28;19969;-40
2022/06/16 11:29:10;;;;;;;;;;;;;;;30.82;35.03;99534.13;5043980;28;19925;-40
2022/06/16 11:31:38;;;;;;;;;;;;;;;30.06;33.29;99529.84;5041874;28;19979;-40
2022/06/16 11:34:13;;;;;;;;;;;;;;;29.45;33.83;99535.19;5026285;28;19921;-40
2022/06/16 11:36:50;;;;;;;;;;;;;;;30.03;33.81;99531.81;5041989;28;19920;-40
2022/06/16 11:39:26;;;;;;;;;;;;;;;30.23;33.35;99539.53;5045360;28;20366;-40
2022/06/16 11:41:53;;;;;;;;;;;;;;;31.00;35.05;99545.47;5028252;28;19995;-40
2022/06/16 11:44:27;;;;;;;;;;;;;;;30.12;34.99;99539.81;5027067;28;20028;-40
2022/06/16 11:47:21;;;;;;;;;;;;;;;31.49;34.17;99528.59;5044270;28;19975;-40
2022/06/16 11:50:05;;;;;;;;;;;;;;;32.77;32.94;99522.06;5025758;28;19921;-40
2022/06/16 11:52:38;;;;;;;;;;;;;;;33.31;30.93;99516.56;5042596;28;19920;-40
2022/06/16 11:55:06;;;;;;;;;;;;;;;31.80;33.82;99522.50;5025064;28;20305;-40
2022/06/16 11:57:38;;;;;;;;;;;;;;;33.00;31.51;99522.03;5043206;28;19920;-40
2022/06/16 12:00:16;;;;;;;;;;;;;;;31.53;31.07;99519.25;5024872;28;19924;-40
2022/06/16 12:03:00;;;;;;;;;;;;;;;31.16;31.15;99523.31;5042600;28;19967;-40
2022/06/16 12:05:27;;;;;;;;;;;;;;;32.80;30.57;99509.22;5041120;28;20373;-40
2022/06/16 12:08:00;;;;;;;;;;;;;;;31.71;31.47;99523.53;5042392;28;19924;-40
2022/06/16 12:10:31;;;;;;;;;;;;;;;32.40;31.74;99516.50;5043515;28;19951;-40
2022/06/16 12:12:56;;;;;;;;;;;;;;;31.31;32.96;99527.94;5045974;28;19921;-40
2022/06/16 12:15:28;;;;;;;;;;;;;;;31.00;33.49;99518.84;5047215;28;19916;-40
2022/06/16 12:17:59;;;;;;;;;;;;;;;31.23;34.11;99520.81;5048588;28;19940;-40
2022/06/16 12:20:27;;;;;;;;;;;;;;;30.59;33.96;99526.81;5045783;28;20609;-40
2022/06/16 12:22:58;;;;;;;;;;;;;;;31.99;34.48;99514.09;5048201;28;19924;-40
2022/06/16 12:25:38;;;;;;;;;;;;;;;32.60;31.80;99511.53;5026723;28;20062;-40
2022/06/16 12:28:06;;;;;;;;;;;;;;;31.80;33.53;99523.31;5027853;28;19925;-40
2022/06/16 12:30:38;;;;;;;;;;;;;;;31.80;33.30;99520.66;5048534;28;19920;-40
2022/06/16 12:33:09;;;;;;;;;;;;;;;33.70;32.58;99523.50;5028982;28;20022;-40
2022/06/16 12:35:36;;;;;;;;;;;;;;;34.22;31.73;99519.81;5047448;28;19917;-40
2022/06/16 12:38:13;;;;;;;;;;;;;;;31.94;32.29;99526.25;5025764;28;19920;-40
2022/06/16 12:40:41;;;;;;;;;;;;;;;33.89;31.22;99522.06;5027640;28;19928;-40
2022/06/16 12:43:12;;;;;;;;;;;;;;;34.43;30.29;99519.00;5028783;28;20429;-40
2022/06/16 12:45:43;;;;;;;;;;;;;;;33.99;31.70;99522.63;5027217;28;19916;-40
2022/06/16 12:48:13;;;;;;;;;;;;;;;33.08;32.90;99532.66;5043834;28;19966;-40
2022/06/16 12:50:39;;;;;;;;;;;;;;;33.09;30.84;99520.97;5028284;28;20164;-40
2022/06/16 12:53:05;;;;;;;;;;;;;;;34.96;31.77;99529.34;5027447;28;20425;-40
2022/06/16 12:55:40;;;;;;;;;;;;;;;33.82;31.05;99522.00;5046884;28;19921;-40
2022/06/16 12:58:07;;;;;;;;;;;;;;;34.33;29.64;99529.19;5029375;28;20003;-40
2022/06/16 13:00:34;;;;;;;;;;;;;;;32.54;31.19;99522.09;5027118;28;19912;-40
2022/06/16 13:03:02;;;;;;;;;;;;;;;32.33;31.53;99520.88;5045239;28;19970;-40
2022/06/16 13:05:27;;;;;;;;;;;;;;;34.16;32.76;99520.56;5026419;28;19998;-40
2022/06/16 13:07:53;;;;;;;;;;;;;;;34.37;30.28;99511.72;5045069;28;20012;-40